Aviation Digital Data Service (ADDS)

Output produced by METARs form (2030 UTC 27 February 2017)
found at http://aviationweather.gov/adds/metars/
 
KECG 271725Z 2718/2818 14006KT P6SM SCT200 
     FM280100 14005KT P6SM BKN100 
     FM281200 19005KT P6SM SCT200 
     FM281600 20009KT P6SM BKN250